createdAt,value
2022-08-17T00:02:26.152Z,21.01
2022-08-17T00:04:54.701Z,21.03
2022-08-17T00:07:22.371Z,21.02
2022-08-17T00:09:49.826Z,21.00
2022-08-17T00:12:43.237Z,20.96
2022-08-17T00:15:10.643Z,20.95
2022-08-17T00:17:38.661Z,20.96
2022-08-17T00:20:06.675Z,20.94
2022-08-17T00:22:36.710Z,20.94
2022-08-17T00:25:07.183Z,20.83
2022-08-17T00:27:36.883Z,20.91
2022-08-17T00:30:05.718Z,20.93
2022-08-17T00:33:15.123Z,20.86
2022-08-17T00:35:25.262Z,20.84
2022-08-17T00:37:52.853Z,20.82
2022-08-17T00:40:21.073Z,20.79
2022-08-17T00:42:53.623Z,20.78
2022-08-17T00:45:21.150Z,20.77
2022-08-17T00:47:49.479Z,20.75
2022-08-17T00:50:18.175Z,20.72
2022-08-17T00:52:49.167Z,20.71
2022-08-17T00:55:16.957Z,20.67
2022-08-17T00:57:46.019Z,20.65
2022-08-17T01:00:18.118Z,20.61
2022-08-17T01:02:46.919Z,20.57
2022-08-17T01:05:18.642Z,20.60
2022-08-17T01:07:47.791Z,20.60
2022-08-17T01:10:58.269Z,20.57
2022-08-17T01:13:04.253Z,20.29
2022-08-17T01:15:35.967Z,20.49
2022-08-17T01:18:03.678Z,20.48
2022-08-17T01:20:32.335Z,20.50
2022-08-17T01:23:20.576Z,20.47
2022-08-17T01:25:51.095Z,20.49
2022-08-17T01:28:53.052Z,20.47
2022-08-17T01:31:07.848Z,20.44
2022-08-17T01:33:35.427Z,20.47
2022-08-17T01:36:03.620Z,20.41
2022-08-17T01:38:33.206Z,20.41
2022-08-17T01:41:02.478Z,20.39
2022-08-17T01:43:31.962Z,20.40
2022-08-17T01:46:02.619Z,20.44
2022-08-17T01:48:32.286Z,20.15
2022-08-17T01:50:59.940Z,20.46
2022-08-17T01:53:29.650Z,20.50
2022-08-17T01:56:00.809Z,20.52
2022-08-17T01:58:28.496Z,20.55
2022-08-17T02:01:00.445Z,20.35
2022-08-17T02:03:30.582Z,20.60
2022-08-17T02:05:58.321Z,20.60
2022-08-17T02:08:37.220Z,20.58
2022-08-17T02:11:11.576Z,20.45
2022-08-17T02:13:39.775Z,20.41
2022-08-17T02:16:07.377Z,20.28
2022-08-17T02:18:34.916Z,20.01
2022-08-17T02:21:02.470Z,19.78
2022-08-17T02:23:31.365Z,19.75
2022-08-17T02:25:59.509Z,19.91
2022-08-17T02:28:29.050Z,19.94
2022-08-17T02:31:01.279Z,19.93
2022-08-17T02:33:42.730Z,19.79
2022-08-17T02:36:12.530Z,19.94
2022-08-17T02:38:40.870Z,20.03
2022-08-17T02:41:08.514Z,20.08
2022-08-17T02:43:37.385Z,20.13
2022-08-17T02:46:04.953Z,20.11
2022-08-17T02:48:32.453Z,20.03
2022-08-17T02:50:59.951Z,19.96
2022-08-17T02:53:27.605Z,19.92
2022-08-17T02:56:03.043Z,19.90
2022-08-17T02:58:34.460Z,19.94
2022-08-17T03:01:06.009Z,19.91
2022-08-17T03:06:34.039Z,19.94
2022-08-17T03:09:13.194Z,19.97
2022-08-17T03:11:49.749Z,20.03
2022-08-17T03:14:26.106Z,20.02
2022-08-17T03:16:55.358Z,20.08
2022-08-17T03:19:32.099Z,20.05
2022-08-17T03:21:59.926Z,19.97
2022-08-17T03:24:47.245Z,19.44
2022-08-17T03:27:15.301Z,19.56
2022-08-17T03:29:42.826Z,19.65
2022-08-17T03:32:15.659Z,19.80
2022-08-17T03:34:43.166Z,19.92
2022-08-17T03:37:10.682Z,19.80
2022-08-17T03:39:38.449Z,19.77
2022-08-17T03:42:09.093Z,19.87
2022-08-17T03:44:58.312Z,19.95
2022-08-17T03:47:44.999Z,19.97
2022-08-17T03:50:33.253Z,20.04
2022-08-17T03:53:18.932Z,20.03
2022-08-17T03:56:03.772Z,20.00
2022-08-17T03:58:31.250Z,20.01
2022-08-17T04:00:59.099Z,20.02
2022-08-17T04:03:28.888Z,20.02
2022-08-17T04:05:56.413Z,19.99
2022-08-17T04:08:24.340Z,19.98
2022-08-17T04:10:51.921Z,19.96
2022-08-17T04:13:24.248Z,19.98
2022-08-17T04:15:53.092Z,19.96
2022-08-17T04:18:20.921Z,19.96
2022-08-17T04:20:49.764Z,19.98
2022-08-17T04:23:18.478Z,19.95
2022-08-17T04:25:48.378Z,19.92
2022-08-17T04:28:16.529Z,19.90
2022-08-17T04:30:45.755Z,19.96
2022-08-17T04:33:14.563Z,19.96
2022-08-17T04:35:51.051Z,19.97
2022-08-17T04:38:21.789Z,19.96
2022-08-17T04:41:07.716Z,19.97
2022-08-17T04:43:36.619Z,19.95
2022-08-17T04:46:05.641Z,19.99
2022-08-17T04:48:36.185Z,20.00
2022-08-17T04:51:06.220Z,19.99
2022-08-17T04:53:35.144Z,20.00
2022-08-17T04:56:16.007Z,20.02
2022-08-17T04:58:45.159Z,19.93
2022-08-17T05:01:34.292Z,19.93
2022-08-17T05:04:32.181Z,19.92
2022-08-17T05:06:50.719Z,19.88
2022-08-17T05:09:19.796Z,19.88
2022-08-17T05:11:47.593Z,19.89
2022-08-17T05:14:15.545Z,19.88
2022-08-17T05:16:43.095Z,19.77
2022-08-17T05:19:10.636Z,19.78
2022-08-17T05:21:38.159Z,19.84
2022-08-17T05:24:06.088Z,19.88
2022-08-17T05:26:54.692Z,19.91
2022-08-17T05:29:22.888Z,19.97
2022-08-17T05:32:37.255Z,19.91
2022-08-17T05:34:59.992Z,19.86
2022-08-17T05:37:30.817Z,19.86
2022-08-17T05:40:14.708Z,19.89
2022-08-17T05:42:43.891Z,19.90
2022-08-17T05:45:12.409Z,19.89
2022-08-17T05:47:59.924Z,19.98
2022-08-17T05:50:31.205Z,20.01
2022-08-17T05:53:04.459Z,19.96
2022-08-17T05:55:36.682Z,19.97
2022-08-17T05:58:10.924Z,20.02
2022-08-17T06:00:42.404Z,20.17
2022-08-17T06:03:19.836Z,20.09
2022-08-17T06:06:01.536Z,20.14
2022-08-17T06:08:33.429Z,20.30
2022-08-17T06:11:04.689Z,20.12
2022-08-17T06:13:43.459Z,20.50
2022-08-17T06:16:33.376Z,20.42
2022-08-17T06:19:01.983Z,20.46
2022-08-17T06:21:33.910Z,20.51
2022-08-17T06:24:05.441Z,20.59
2022-08-17T06:26:38.486Z,20.72
2022-08-17T06:29:18.901Z,20.78
2022-08-17T06:31:47.179Z,20.82
2022-08-17T06:34:15.265Z,20.91
2022-08-17T06:36:52.680Z,20.99
2022-08-17T06:39:27.359Z,20.92
2022-08-17T06:41:58.668Z,20.95
2022-08-17T06:44:49.882Z,20.94
2022-08-17T06:47:28.016Z,21.12
2022-08-17T06:50:01.894Z,21.31
2022-08-17T06:52:43.448Z,21.38
2022-08-17T06:55:18.221Z,21.49
2022-08-17T06:57:48.661Z,21.56
2022-08-17T07:00:19.243Z,21.58
2022-08-17T07:02:51.253Z,21.57
2022-08-17T07:05:22.310Z,21.61
2022-08-17T07:08:04.524Z,21.58
2022-08-17T07:11:04.241Z,21.47
2022-08-17T07:13:41.841Z,21.51
2022-08-17T07:16:16.852Z,21.54
2022-08-17T07:18:44.892Z,21.45
2022-08-17T07:21:25.866Z,21.44
2022-08-17T07:24:02.912Z,21.38
2022-08-17T07:26:30.774Z,21.34
2022-08-17T07:29:00.731Z,21.33
2022-08-17T07:31:31.491Z,21.35
2022-08-17T07:34:00.168Z,21.35
2022-08-17T07:36:33.635Z,21.43
2022-08-17T07:39:01.981Z,21.37
2022-08-17T07:41:57.585Z,21.27
2022-08-17T07:44:18.277Z,21.42
2022-08-17T07:47:09.049Z,21.51
2022-08-17T07:49:37.848Z,21.52
2022-08-17T07:52:47.456Z,21.44
2022-08-17T07:54:56.030Z,21.48
2022-08-17T07:57:30.038Z,21.45
2022-08-17T08:00:19.545Z,21.44
2022-08-17T08:03:11.983Z,21.45
2022-08-17T08:05:50.266Z,21.41
2022-08-17T08:08:29.886Z,21.43
2022-08-17T08:11:08.689Z,21.45
2022-08-17T08:13:40.446Z,21.59
2022-08-17T08:16:20.891Z,21.65
2022-08-17T08:18:55.999Z,21.63
2022-08-17T08:21:30.127Z,21.65
2022-08-17T08:24:00.663Z,21.62
2022-08-17T08:26:33.553Z,21.58
2022-08-17T08:29:06.762Z,21.74
2022-08-17T08:31:42.504Z,21.73
2022-08-17T08:34:59.103Z,21.74
2022-08-17T08:37:17.837Z,21.87
2022-08-17T08:39:53.162Z,21.88
2022-08-17T08:42:25.397Z,22.00
2022-08-17T08:45:00.853Z,21.96
2022-08-17T08:47:40.251Z,22.07
2022-08-17T08:50:37.232Z,22.05
2022-08-17T08:53:11.491Z,22.03
2022-08-17T08:55:46.359Z,22.20
2022-08-17T08:58:40.454Z,22.13
2022-08-17T09:01:08.834Z,22.16
2022-08-17T09:04:02.840Z,22.07
2022-08-17T09:06:47.377Z,22.22
2022-08-17T09:09:22.184Z,22.14
2022-08-17T09:12:01.338Z,21.98
2022-08-17T09:14:45.347Z,22.08
2022-08-17T09:17:16.488Z,22.07
2022-08-17T09:19:49.438Z,22.19
2022-08-17T09:22:23.794Z,22.15
2022-08-17T09:24:57.161Z,22.36
2022-08-17T09:27:28.481Z,22.26
2022-08-17T09:29:58.250Z,22.24
2022-08-17T09:32:29.686Z,22.35
2022-08-17T09:35:01.372Z,22.38
2022-08-17T09:37:31.695Z,22.41
2022-08-17T09:40:10.487Z,22.16
2022-08-17T09:42:41.923Z,22.04
2022-08-17T09:45:16.774Z,21.80
2022-08-17T09:47:49.251Z,21.56
2022-08-17T09:51:01.598Z,21.44
2022-08-17T09:53:09.553Z,21.40
2022-08-17T09:55:47.542Z,21.32
2022-08-17T09:58:19.701Z,21.03
2022-08-17T10:00:55.652Z,20.91
2022-08-17T10:03:35.248Z,20.76
2022-08-17T10:06:08.388Z,20.59
2022-08-17T10:08:40.708Z,20.55
2022-08-17T10:11:16.009Z,20.49
2022-08-17T10:13:53.520Z,20.47
2022-08-17T10:16:24.378Z,20.43
2022-08-17T10:18:57.295Z,20.66
2022-08-17T10:21:44.070Z,20.72
2022-08-17T10:24:33.077Z,20.98
2022-08-17T10:27:03.700Z,21.13
2022-08-17T10:29:48.448Z,21.26
2022-08-17T10:32:22.702Z,21.35
2022-08-17T10:35:00.543Z,21.54
2022-08-17T10:37:41.133Z,21.84
2022-08-17T10:40:22.002Z,22.18
2022-08-17T10:42:52.468Z,22.70
2022-08-17T10:45:26.421Z,22.82
2022-08-17T10:48:04.796Z,22.94
2022-08-17T10:50:54.225Z,22.81
2022-08-17T10:53:45.979Z,22.92
2022-08-17T10:56:24.607Z,22.89
2022-08-17T10:58:55.118Z,23.07
2022-08-17T11:01:30.434Z,22.99
2022-08-17T11:03:59.445Z,22.83
2022-08-17T11:06:33.377Z,22.86
2022-08-17T11:09:28.677Z,23.06
2022-08-17T11:12:09.390Z,23.04
2022-08-17T11:14:44.089Z,23.21
2022-08-17T11:17:27.386Z,23.35
2022-08-17T11:20:02.321Z,23.34
2022-08-17T11:22:38.947Z,23.48
2022-08-17T11:25:17.813Z,23.48
2022-08-17T11:27:53.397Z,23.54
2022-08-17T11:30:35.988Z,23.25
2022-08-17T11:33:25.300Z,23.27
2022-08-17T11:36:00.273Z,22.78
2022-08-17T11:38:32.267Z,22.91
2022-08-17T11:41:09.621Z,22.96
2022-08-17T11:43:55.521Z,22.68
2022-08-17T11:46:51.882Z,22.86
2022-08-17T11:49:40.494Z,22.75
2022-08-17T11:52:23.665Z,22.58
2022-08-17T11:54:52.618Z,22.08
2022-08-17T11:57:38.707Z,21.98
2022-08-17T12:00:10.417Z,22.07
2022-08-17T12:02:47.435Z,22.12
2022-08-17T12:05:34.927Z,22.11
2022-08-17T12:08:52.310Z,22.09
2022-08-17T12:11:58.683Z,22.07
2022-08-17T12:14:32.258Z,22.07
2022-08-17T12:17:10.870Z,22.08
2022-08-17T12:19:39.105Z,22.15
2022-08-17T12:22:11.192Z,22.17
2022-08-17T12:24:44.822Z,22.14
2022-08-17T12:27:20.896Z,22.12
2022-08-17T12:30:12.167Z,22.06
2022-08-17T12:32:40.638Z,22.07
2022-08-17T12:35:20.038Z,22.09
2022-08-17T12:37:50.242Z,22.07
2022-08-17T12:40:19.458Z,21.95
2022-08-17T12:42:56.182Z,21.87
2022-08-17T12:45:25.977Z,21.80
2022-08-17T12:48:00.446Z,21.82
2022-08-17T12:50:30.287Z,21.63
2022-08-17T12:53:01.986Z,21.66
2022-08-17T12:55:32.469Z,21.51
2022-08-17T12:58:03.096Z,21.63
2022-08-17T13:00:32.395Z,21.71
2022-08-17T13:03:01.233Z,21.75
2022-08-17T13:05:29.991Z,21.72
2022-08-17T13:07:59.025Z,21.66
2022-08-17T13:10:32.442Z,21.72
2022-08-17T13:13:04.930Z,21.66
2022-08-17T13:15:36.944Z,21.63
2022-08-17T13:18:07.420Z,21.50
2022-08-17T13:20:35.427Z,21.37
2022-08-17T13:23:11.418Z,21.34
2022-08-17T13:25:40.123Z,21.31
2022-08-17T13:28:18.261Z,20.90
2022-08-17T13:31:12.973Z,21.17
2022-08-17T13:33:44.643Z,21.17
2022-08-17T13:36:13.053Z,21.09
2022-08-17T13:38:50.951Z,21.12
2022-08-17T13:41:31.112Z,21.23
2022-08-17T13:44:00.106Z,21.22
2022-08-17T13:46:33.602Z,21.17
2022-08-17T13:49:02.985Z,21.17
2022-08-17T13:51:33.499Z,21.05
2022-08-17T13:54:05.957Z,21.32
2022-08-17T13:56:39.133Z,21.26
2022-08-17T13:59:11.099Z,21.20
2022-08-17T14:01:40.181Z,21.25
2022-08-17T14:04:09.009Z,21.21
2022-08-17T14:06:51.532Z,21.29
2022-08-17T14:09:21.949Z,21.34
2022-08-17T14:11:50.289Z,21.31
2022-08-17T14:14:19.818Z,21.31
2022-08-17T14:16:47.554Z,21.32
2022-08-17T14:19:15.335Z,21.33
2022-08-17T14:21:43.908Z,21.28
2022-08-17T14:24:17.647Z,21.28
2022-08-17T14:26:45.678Z,21.23
2022-08-17T14:29:15.520Z,21.09
2022-08-17T14:31:53.135Z,21.21
2022-08-17T14:34:22.372Z,21.20
2022-08-17T14:36:49.874Z,21.21
2022-08-17T14:39:17.974Z,21.25
2022-08-17T14:41:45.594Z,21.32
2022-08-17T14:44:13.405Z,21.38
2022-08-17T14:46:41.721Z,21.35
2022-08-17T14:49:12.803Z,21.66
2022-08-17T14:51:44.094Z,21.83
2022-08-17T14:54:29.397Z,21.75
2022-08-17T14:57:25.199Z,21.69
2022-08-17T14:59:55.184Z,21.66
2022-08-17T15:02:32.142Z,21.75
2022-08-17T15:05:02.106Z,21.89
2022-08-17T15:07:30.568Z,21.93
2022-08-17T15:09:58.736Z,21.90
2022-08-17T15:12:32.676Z,22.05
2022-08-17T15:15:10.234Z,22.24
2022-08-17T15:17:57.786Z,22.51
2022-08-17T15:20:29.740Z,22.87
2022-08-17T15:22:58.958Z,23.14
2022-08-17T15:25:28.751Z,23.37
2022-08-17T15:27:59.138Z,23.16
2022-08-17T15:30:30.304Z,23.11
2022-08-17T15:32:58.406Z,23.08
2022-08-17T15:35:29.570Z,23.16
2022-08-17T15:37:58.007Z,23.12
2022-08-17T15:40:26.059Z,23.25
2022-08-17T15:42:53.729Z,23.23
2022-08-17T15:45:24.488Z,23.08
2022-08-17T15:47:52.317Z,22.97
2022-08-17T15:50:20.115Z,22.89
2022-08-17T15:52:54.706Z,22.74
2022-08-17T15:55:24.269Z,22.71
2022-08-17T15:57:52.743Z,22.65
2022-08-17T16:00:21.010Z,22.63
2022-08-17T16:03:45.127Z,22.66
2022-08-17T16:05:36.764Z,22.71
2022-08-17T16:08:06.274Z,22.79
2022-08-17T16:10:35.113Z,22.94
2022-08-17T16:13:04.473Z,23.11
2022-08-17T16:15:32.254Z,23.17
2022-08-17T16:18:00.225Z,23.09
2022-08-17T16:20:28.610Z,23.15
2022-08-17T16:22:56.134Z,23.19
2022-08-17T16:25:52.078Z,23.13
2022-08-17T16:28:14.068Z,23.03
2022-08-17T16:30:42.500Z,22.95
2022-08-17T16:33:11.293Z,22.80
2022-08-17T16:35:39.068Z,22.70
2022-08-17T16:38:07.159Z,22.66
2022-08-17T16:55:44.209Z,22.59
2022-08-17T16:58:15.278Z,22.56
2022-08-17T17:00:55.757Z,22.53
2022-08-17T17:03:26.846Z,22.55
2022-08-17T17:06:06.481Z,22.46
2022-08-17T17:08:50.767Z,22.49
2022-08-17T17:11:27.981Z,22.47
2022-08-17T17:36:51.693Z,22.13
2022-08-17T17:39:20.620Z,22.13
2022-08-17T17:41:51.860Z,21.98
2022-08-17T17:44:22.682Z,21.89
2022-08-17T17:46:52.437Z,21.95
2022-08-17T17:49:20.336Z,21.96
2022-08-17T17:52:09.495Z,21.96
2022-08-17T17:54:47.669Z,21.91
2022-08-17T17:57:21.257Z,21.80
2022-08-17T17:59:55.081Z,21.83
2022-08-17T18:02:51.311Z,21.75
2022-08-17T18:05:26.753Z,21.76
2022-08-17T18:07:59.467Z,21.78
2022-08-17T18:10:34.112Z,21.66
2022-08-17T18:13:04.471Z,21.68
2022-08-17T18:15:36.075Z,21.64
2022-08-17T18:18:20.468Z,21.66
2022-08-17T18:20:53.720Z,21.61
2022-08-17T18:23:28.037Z,21.54
2022-08-17T18:25:58.675Z,21.52
2022-08-17T18:28:28.814Z,21.42
2022-08-17T18:31:07.779Z,21.44
2022-08-17T18:33:36.076Z,21.42
2022-08-17T18:36:03.619Z,21.41
2022-08-17T18:38:33.617Z,21.42
2022-08-17T18:41:04.059Z,21.40
2022-08-17T18:43:36.463Z,21.41
2022-08-17T18:46:28.957Z,21.37
2022-08-17T18:48:58.935Z,21.35
2022-08-17T18:51:40.641Z,21.35
2022-08-17T18:54:23.312Z,21.30
2022-08-17T18:56:56.215Z,21.16
2022-08-17T18:59:28.835Z,21.08
2022-08-17T19:02:13.360Z,20.91
2022-08-17T19:04:59.027Z,20.90
2022-08-17T19:07:51.600Z,20.86
2022-08-17T19:10:21.354Z,20.82
2022-08-17T19:12:54.989Z,20.81
2022-08-17T19:15:31.256Z,20.80
2022-08-17T19:18:01.730Z,20.79
2022-08-17T19:20:36.775Z,20.78
2022-08-17T19:23:07.938Z,20.76
2022-08-17T19:25:37.362Z,20.77
2022-08-17T19:28:22.396Z,20.73
2022-08-17T19:30:51.166Z,20.73
2022-08-17T19:33:19.971Z,20.68
2022-08-17T19:36:06.372Z,20.63
2022-08-17T19:38:43.311Z,20.44
2022-08-17T19:41:16.064Z,20.58
2022-08-17T19:44:09.690Z,20.54
2022-08-17T19:46:43.080Z,20.49
2022-08-17T19:49:23.263Z,20.45
2022-08-17T19:52:16.541Z,20.44
2022-08-17T19:55:13.813Z,20.41
2022-08-17T20:01:57.339Z,20.34
2022-08-17T20:04:44.885Z,20.30
2022-08-17T20:07:23.295Z,20.31
2022-08-17T20:10:19.921Z,20.26
2022-08-17T20:13:38.500Z,20.23
2022-08-17T20:16:19.336Z,20.20
2022-08-17T20:19:07.697Z,20.16
2022-08-17T20:22:14.587Z,20.16
2022-08-17T20:24:55.631Z,20.17
2022-08-17T20:27:31.693Z,20.16
2022-08-17T20:30:25.855Z,20.14
2022-08-17T20:33:07.964Z,20.14
2022-08-17T20:36:06.905Z,20.10
2022-08-17T20:38:42.663Z,20.09
2022-08-17T20:41:38.378Z,20.10
2022-08-17T20:44:18.580Z,20.10
2022-08-17T20:47:14.264Z,20.08
2022-08-17T20:49:53.510Z,20.06
2022-08-17T20:52:39.097Z,20.06
2022-08-17T20:55:08.396Z,20.01
2022-08-17T20:58:09.593Z,20.01
2022-08-17T21:01:01.676Z,19.99
2022-08-17T21:04:04.831Z,19.92
2022-08-17T21:06:47.586Z,19.89
2022-08-17T21:09:45.184Z,19.87
2022-08-17T21:12:40.494Z,19.77
2022-08-17T21:15:32.971Z,19.77
2022-08-17T21:18:27.504Z,19.67
2022-08-17T21:21:04.343Z,19.71
2022-08-17T21:23:40.760Z,19.58
2022-08-17T21:26:19.561Z,19.57
2022-08-17T21:29:32.786Z,19.60
2022-08-17T21:35:19.411Z,19.68
2022-08-17T21:38:24.706Z,19.67
2022-08-17T21:41:23.880Z,19.68
2022-08-17T21:44:04.831Z,19.64
2022-08-17T21:46:48.348Z,19.64
2022-08-17T21:49:55.579Z,19.64
2022-08-17T21:52:24.330Z,19.56
2022-08-17T21:54:53.497Z,19.58
2022-08-17T21:57:22.307Z,19.54
2022-08-17T21:59:54.281Z,19.54
2022-08-17T22:02:22.850Z,19.51
2022-08-17T22:04:57.849Z,19.49
2022-08-17T22:07:35.183Z,19.46
2022-08-17T22:10:03.055Z,19.48
2022-08-17T22:12:30.637Z,19.45
2022-08-17T22:15:01.380Z,19.43
2022-08-17T22:17:30.027Z,19.46
2022-08-17T22:19:59.594Z,19.45
2022-08-17T22:22:32.545Z,19.42
2022-08-17T22:25:01.367Z,19.40
2022-08-17T22:27:47.761Z,19.43
2022-08-17T22:30:26.070Z,19.40
2022-08-17T22:32:53.472Z,19.41
2022-08-17T22:35:35.787Z,19.43
2022-08-17T22:38:22.271Z,19.44
2022-08-17T22:40:50.867Z,19.43
2022-08-17T22:43:21.158Z,19.43
2022-08-17T22:45:56.792Z,19.42
2022-08-17T22:48:27.506Z,19.42
2022-08-17T22:51:03.926Z,19.39
2022-08-17T22:54:03.814Z,19.40
2022-08-17T22:56:48.943Z,19.45
2022-08-17T22:59:32.620Z,19.44
2022-08-17T23:02:21.678Z,19.23
2022-08-17T23:04:51.242Z,19.44
2022-08-17T23:07:18.934Z,19.41
2022-08-17T23:09:46.428Z,19.41
2022-08-17T23:12:16.296Z,19.42
2022-08-17T23:14:45.751Z,19.41
2022-08-17T23:17:13.611Z,19.46
2022-08-17T23:19:42.491Z,19.42
2022-08-17T23:22:11.140Z,19.43
2022-08-17T23:24:45.393Z,19.46
2022-08-17T23:27:12.962Z,19.46
2022-08-17T23:29:41.956Z,19.52
2022-08-17T23:32:11.042Z,19.55
2022-08-17T23:34:39.649Z,19.55
2022-08-17T23:37:09.413Z,19.53
2022-08-17T23:39:37.552Z,19.55
2022-08-17T23:42:07.809Z,19.55
2022-08-17T23:44:35.876Z,19.54
2022-08-17T23:47:04.593Z,19.53
2022-08-17T23:49:32.498Z,19.52
2022-08-17T23:52:00.904Z,19.49
2022-08-17T23:54:33.406Z,19.48
2022-08-17T23:57:01.243Z,19.51
2022-08-17T23:59:29.389Z,19.51
